North Carver, Massachusetts
Current Conditions -  °F | °C
As of 9:52 PM on Saturday 22 Nov 2014 (Local Time) from KPYM Reporting Station
Scattered Clouds Scattered Clouds  
Wind Chill: 36°   Ceiling: Unl
Heat Index: 43°   Visibility: 10mi
Dew Point: 28°   Wind: 14mph
Humidity: 56%   Direction: 220°SW
Pressure: 30.1"   Gusts: NA
Location:  41.92°N, 70.8°W
Report Text: KPYM 230252Z AUTO 22012KT 10SM FEW060 SCT075 06/M02 A3010 RMK AO2 SLP194 T00611022 58012
Loading
Personal Weather Stations






























Interactive Weather Map New forecast layout! Learn more

10-Day Weather Forecast

Advertisements
Track Severe Weather on mobile